sensor_id;sensor_type;location;lat;lon;timestamp;temperature;humidity
13113;DHT22;6622;49.752;6.100;2022-08-01T00:01:08;20.60;99.90
13113;DHT22;6622;49.752;6.100;2022-08-01T00:03:36;20.50;99.90
13113;DHT22;6622;49.752;6.100;2022-08-01T00:06:02;20.50;99.90
13113;DHT22;6622;49.752;6.100;2022-08-01T00:08:29;20.40;99.90
13113;DHT22;6622;49.752;6.100;2022-08-01T00:10:56;20.20;99.90
13113;DHT22;6622;49.752;6.100;2022-08-01T00:13:23;20.20;99.90
13113;DHT22;6622;49.752;6.100;2022-08-01T00:15:50;20.10;99.90
13113;DHT22;6622;49.752;6.100;2022-08-01T00:18:16;20.10;99.90
13113;DHT22;6622;49.752;6.100;2022-08-01T00:20:44;19.90;99.90
13113;DHT22;6622;49.752;6.100;2022-08-01T00:23:10;19.90;99.90
13113;DHT22;6622;49.752;6.100;2022-08-01T00:25:37;19.90;99.90
13113;DHT22;6622;49.752;6.100;2022-08-01T00:28:04;19.80;99.90
13113;DHT22;6622;49.752;6.100;2022-08-01T00:30:31;19.80;99.90
13113;DHT22;6622;49.752;6.100;2022-08-01T00:32:58;19.80;99.90
13113;DHT22;6622;49.752;6.100;2022-08-01T00:35:24;19.80;99.90
13113;DHT22;6622;49.752;6.100;2022-08-01T00:37:51;19.80;99.90
13113;DHT22;6622;49.752;6.100;2022-08-01T00:40:17;19.70;99.90
13113;DHT22;6622;49.752;6.100;2022-08-01T00:42:44;19.60;99.90
13113;DHT22;6622;49.752;6.100;2022-08-01T00:45:11;19.60;99.90
13113;DHT22;6622;49.752;6.100;2022-08-01T00:47:37;19.50;99.90
13113;DHT22;6622;49.752;6.100;2022-08-01T00:50:04;19.50;99.90
13113;DHT22;6622;49.752;6.100;2022-08-01T00:52:31;19.50;99.90
13113;DHT22;6622;49.752;6.100;2022-08-01T00:54:57;19.50;99.90
13113;DHT22;6622;49.752;6.100;2022-08-01T00:57:24;19.50;99.90
13113;DHT22;6622;49.752;6.100;2022-08-01T00:59:53;19.50;99.90
13113;DHT22;6622;49.752;6.100;2022-08-01T01:02:20;19.40;99.90
13113;DHT22;6622;49.752;6.100;2022-08-01T01:04:46;19.40;99.90
13113;DHT22;6622;49.752;6.100;2022-08-01T01:07:17;19.40;99.90
13113;DHT22;6622;49.752;6.100;2022-08-01T01:09:50;19.30;99.90
13113;DHT22;6622;49.752;6.100;2022-08-01T01:12:17;19.40;99.90
13113;DHT22;6622;49.752;6.100;2022-08-01T01:17:19;19.40;99.90
13113;DHT22;6622;49.752;6.100;2022-08-01T01:19:48;19.40;99.90
13113;DHT22;6622;49.752;6.100;2022-08-01T01:22:17;19.30;99.90
13113;DHT22;6622;49.752;6.100;2022-08-01T01:24:46;19.30;99.90
13113;DHT22;6622;49.752;6.100;2022-08-01T01:27:14;19.40;99.90
13113;DHT22;6622;49.752;6.100;2022-08-01T01:29:41;19.50;99.90
13113;DHT22;6622;49.752;6.100;2022-08-01T01:32:07;19.40;99.90
13113;DHT22;6622;49.752;6.100;2022-08-01T01:34:34;19.30;99.90
13113;DHT22;6622;49.752;6.100;2022-08-01T01:36:59;19.10;99.90
13113;DHT22;6622;49.752;6.100;2022-08-01T01:39:26;19.00;99.90
13113;DHT22;6622;49.752;6.100;2022-08-01T01:41:53;18.90;99.90
13113;DHT22;6622;49.752;6.100;2022-08-01T01:44:19;18.90;99.90
13113;DHT22;6622;49.752;6.100;2022-08-01T01:46:46;18.80;99.90
13113;DHT22;6622;49.752;6.100;2022-08-01T01:49:12;18.70;99.90
13113;DHT22;6622;49.752;6.100;2022-08-01T01:51:39;18.70;99.90
13113;DHT22;6622;49.752;6.100;2022-08-01T01:54:06;18.70;99.90
13113;DHT22;6622;49.752;6.100;2022-08-01T01:56:32;18.70;99.90
13113;DHT22;6622;49.752;6.100;2022-08-01T01:59:00;18.60;99.90
13113;DHT22;6622;49.752;6.100;2022-08-01T02:01:26;18.70;99.90
13113;DHT22;6622;49.752;6.100;2022-08-01T02:03:53;18.70;99.90
13113;DHT22;6622;49.752;6.100;2022-08-01T02:06:20;18.60;99.90
13113;DHT22;6622;49.752;6.100;2022-08-01T02:08:46;18.70;99.90
13113;DHT22;6622;49.752;6.100;2022-08-01T02:11:13;18.70;99.90
13113;DHT22;6622;49.752;6.100;2022-08-01T02:13:50;18.70;99.90
13113;DHT22;6622;49.752;6.100;2022-08-01T02:16:14;18.70;99.90
13113;DHT22;6622;49.752;6.100;2022-08-01T02:18:41;18.50;99.90
13113;DHT22;6622;49.752;6.100;2022-08-01T02:21:08;18.30;99.90
13113;DHT22;6622;49.752;6.100;2022-08-01T02:23:35;18.20;99.90
13113;DHT22;6622;49.752;6.100;2022-08-01T02:26:01;18.10;99.90
13113;DHT22;6622;49.752;6.100;2022-08-01T02:28:32;18.10;99.90
13113;DHT22;6622;49.752;6.100;2022-08-01T02:31:06;18.00;99.90
13113;DHT22;6622;49.752;6.100;2022-08-01T02:33:30;18.00;99.90
13113;DHT22;6622;49.752;6.100;2022-08-01T02:35:56;18.00;99.90
13113;DHT22;6622;49.752;6.100;2022-08-01T02:38:23;18.00;99.90
13113;DHT22;6622;49.752;6.100;2022-08-01T02:40:49;17.90;99.90
13113;DHT22;6622;49.752;6.100;2022-08-01T02:43:17;17.90;99.90
13113;DHT22;6622;49.752;6.100;2022-08-01T02:45:47;17.90;99.90
13113;DHT22;6622;49.752;6.100;2022-08-01T02:48:12;17.90;99.90
13113;DHT22;6622;49.752;6.100;2022-08-01T02:50:39;17.80;99.90
13113;DHT22;6622;49.752;6.100;2022-08-01T02:53:06;17.70;99.90
13113;DHT22;6622;49.752;6.100;2022-08-01T02:55:32;17.70;99.90
13113;DHT22;6622;49.752;6.100;2022-08-01T02:57:59;17.70;99.90
13113;DHT22;6622;49.752;6.100;2022-08-01T03:00:25;17.60;99.90
13113;DHT22;6622;49.752;6.100;2022-08-01T03:02:52;17.60;99.90
13113;DHT22;6622;49.752;6.100;2022-08-01T03:05:18;17.60;99.90
13113;DHT22;6622;49.752;6.100;2022-08-01T03:07:45;17.60;99.90
13113;DHT22;6622;49.752;6.100;2022-08-01T03:10:12;17.60;99.90
13113;DHT22;6622;49.752;6.100;2022-08-01T03:12:39;17.60;99.90
13113;DHT22;6622;49.752;6.100;2022-08-01T03:15:05;17.60;99.90
13113;DHT22;6622;49.752;6.100;2022-08-01T03:17:32;17.70;99.90
13113;DHT22;6622;49.752;6.100;2022-08-01T03:19:59;17.60;99.90
13113;DHT22;6622;49.752;6.100;2022-08-01T03:22:25;17.40;99.90
13113;DHT22;6622;49.752;6.100;2022-08-01T03:24:52;17.40;99.90
13113;DHT22;6622;49.752;6.100;2022-08-01T03:27:19;17.30;99.90
13113;DHT22;6622;49.752;6.100;2022-08-01T03:29:46;17.30;99.90
13113;DHT22;6622;49.752;6.100;2022-08-01T03:32:13;17.40;99.90
13113;DHT22;6622;49.752;6.100;2022-08-01T03:34:40;17.30;99.90
13113;DHT22;6622;49.752;6.100;2022-08-01T03:37:08;17.30;99.90
13113;DHT22;6622;49.752;6.100;2022-08-01T03:39:34;17.30;99.90
13113;DHT22;6622;49.752;6.100;2022-08-01T03:42:02;17.50;99.90
13113;DHT22;6622;49.752;6.100;2022-08-01T03:44:27;17.50;99.90
13113;DHT22;6622;49.752;6.100;2022-08-01T03:47:00;17.60;99.90
13113;DHT22;6622;49.752;6.100;2022-08-01T03:49:40;17.50;99.90
13113;DHT22;6622;49.752;6.100;2022-08-01T03:52:06;17.50;99.90
13113;DHT22;6622;49.752;6.100;2022-08-01T03:54:46;17.60;99.90
13113;DHT22;6622;49.752;6.100;2022-08-01T03:56:58;17.50;99.90
13113;DHT22;6622;49.752;6.100;2022-08-01T03:59:25;17.60;99.90
13113;DHT22;6622;49.752;6.100;2022-08-01T04:01:52;17.60;99.90
13113;DHT22;6622;49.752;6.100;2022-08-01T04:04:19;17.60;99.90
13113;DHT22;6622;49.752;6.100;2022-08-01T04:06:46;17.60;99.90
13113;DHT22;6622;49.752;6.100;2022-08-01T04:09:12;17.50;99.90
13113;DHT22;6622;49.752;6.100;2022-08-01T04:11:40;17.60;99.90
13113;DHT22;6622;49.752;6.100;2022-08-01T04:14:06;17.60;99.90
13113;DHT22;6622;49.752;6.100;2022-08-01T04:16:33;17.70;99.90
13113;DHT22;6622;49.752;6.100;2022-08-01T04:19:00;17.60;99.90
13113;DHT22;6622;49.752;6.100;2022-08-01T04:21:27;17.70;99.90
13113;DHT22;6622;49.752;6.100;2022-08-01T04:23:57;17.70;99.90
13113;DHT22;6622;49.752;6.100;2022-08-01T04:26:23;17.80;99.90
13113;DHT22;6622;49.752;6.100;2022-08-01T04:28:50;17.80;99.90
13113;DHT22;6622;49.752;6.100;2022-08-01T04:31:16;17.80;99.90
13113;DHT22;6622;49.752;6.100;2022-08-01T04:33:43;17.80;99.90
13113;DHT22;6622;49.752;6.100;2022-08-01T04:36:10;17.90;99.90
13113;DHT22;6622;49.752;6.100;2022-08-01T04:38:36;17.90;99.90
13113;DHT22;6622;49.752;6.100;2022-08-01T04:41:03;17.90;99.90
13113;DHT22;6622;49.752;6.100;2022-08-01T04:43:29;17.90;99.90
13113;DHT22;6622;49.752;6.100;2022-08-01T04:45:56;17.90;99.90
13113;DHT22;6622;49.752;6.100;2022-08-01T04:48:23;17.80;99.90
13113;DHT22;6622;49.752;6.100;2022-08-01T04:50:50;17.80;99.90
13113;DHT22;6622;49.752;6.100;2022-08-01T04:53:17;17.80;99.90
13113;DHT22;6622;49.752;6.100;2022-08-01T04:55:43;17.90;99.90
13113;DHT22;6622;49.752;6.100;2022-08-01T04:58:11;18.10;99.90
13113;DHT22;6622;49.752;6.100;2022-08-01T05:00:37;18.10;99.90
13113;DHT22;6622;49.752;6.100;2022-08-01T05:03:04;18.10;99.90
13113;DHT22;6622;49.752;6.100;2022-08-01T05:05:30;18.10;99.90
13113;DHT22;6622;49.752;6.100;2022-08-01T05:07:57;18.10;99.90
13113;DHT22;6622;49.752;6.100;2022-08-01T05:10:24;18.20;99.90
13113;DHT22;6622;49.752;6.100;2022-08-01T05:12:50;18.30;99.90
13113;DHT22;6622;49.752;6.100;2022-08-01T05:15:17;18.30;99.90
13113;DHT22;6622;49.752;6.100;2022-08-01T05:17:44;18.40;99.90
13113;DHT22;6622;49.752;6.100;2022-08-01T05:20:10;18.50;99.90
13113;DHT22;6622;49.752;6.100;2022-08-01T05:22:37;18.50;99.90
13113;DHT22;6622;49.752;6.100;2022-08-01T05:25:04;18.60;99.90
13113;DHT22;6622;49.752;6.100;2022-08-01T05:27:30;18.60;99.90
13113;DHT22;6622;49.752;6.100;2022-08-01T05:29:57;18.70;99.90
13113;DHT22;6622;49.752;6.100;2022-08-01T05:32:23;18.80;99.90
13113;DHT22;6622;49.752;6.100;2022-08-01T05:34:50;18.80;99.90
13113;DHT22;6622;49.752;6.100;2022-08-01T05:37:17;18.80;99.90
13113;DHT22;6622;49.752;6.100;2022-08-01T05:39:43;18.80;99.90
13113;DHT22;6622;49.752;6.100;2022-08-01T05:42:10;18.90;99.90
13113;DHT22;6622;49.752;6.100;2022-08-01T05:44:37;19.00;99.90
13113;DHT22;6622;49.752;6.100;2022-08-01T05:47:04;19.00;99.90
13113;DHT22;6622;49.752;6.100;2022-08-01T05:49:31;19.10;99.90
13113;DHT22;6622;49.752;6.100;2022-08-01T05:51:57;19.10;99.90
13113;DHT22;6622;49.752;6.100;2022-08-01T05:54:24;19.20;99.90
13113;DHT22;6622;49.752;6.100;2022-08-01T05:56:50;19.20;99.90
13113;DHT22;6622;49.752;6.100;2022-08-01T05:59:17;19.30;99.90
13113;DHT22;6622;49.752;6.100;2022-08-01T06:01:44;19.40;99.90
13113;DHT22;6622;49.752;6.100;2022-08-01T06:04:10;19.40;99.90
13113;DHT22;6622;49.752;6.100;2022-08-01T06:06:37;19.50;99.90
13113;DHT22;6622;49.752;6.100;2022-08-01T06:09:04;19.60;99.90
13113;DHT22;6622;49.752;6.100;2022-08-01T06:11:30;19.60;99.90
13113;DHT22;6622;49.752;6.100;2022-08-01T06:13:57;19.70;99.90
13113;DHT22;6622;49.752;6.100;2022-08-01T06:16:23;19.70;99.90
13113;DHT22;6622;49.752;6.100;2022-08-01T06:18:51;19.90;99.90
13113;DHT22;6622;49.752;6.100;2022-08-01T06:21:17;19.80;99.90
13113;DHT22;6622;49.752;6.100;2022-08-01T06:23:44;19.90;99.90
13113;DHT22;6622;49.752;6.100;2022-08-01T06:26:12;20.00;99.90
13113;DHT22;6622;49.752;6.100;2022-08-01T06:28:38;20.00;99.90
13113;DHT22;6622;49.752;6.100;2022-08-01T06:31:05;20.00;99.90
13113;DHT22;6622;49.752;6.100;2022-08-01T06:33:31;20.10;99.90
13113;DHT22;6622;49.752;6.100;2022-08-01T06:35:58;20.10;99.90
13113;DHT22;6622;49.752;6.100;2022-08-01T06:38:25;20.10;99.90
13113;DHT22;6622;49.752;6.100;2022-08-01T06:40:52;20.10;99.90
13113;DHT22;6622;49.752;6.100;2022-08-01T06:43:19;20.10;99.90
13113;DHT22;6622;49.752;6.100;2022-08-01T06:45:46;20.10;99.90
13113;DHT22;6622;49.752;6.100;2022-08-01T06:48:13;20.10;99.90
13113;DHT22;6622;49.752;6.100;2022-08-01T06:50:39;20.10;99.90
13113;DHT22;6622;49.752;6.100;2022-08-01T06:53:06;20.10;99.90
13113;DHT22;6622;49.752;6.100;2022-08-01T06:55:33;20.10;99.90
13113;DHT22;6622;49.752;6.100;2022-08-01T06:58:00;20.20;99.90
13113;DHT22;6622;49.752;6.100;2022-08-01T07:00:27;20.20;99.90
13113;DHT22;6622;49.752;6.100;2022-08-01T07:02:54;20.20;99.90
13113;DHT22;6622;49.752;6.100;2022-08-01T07:05:20;20.30;99.90
13113;DHT22;6622;49.752;6.100;2022-08-01T07:07:46;20.30;99.90
13113;DHT22;6622;49.752;6.100;2022-08-01T07:10:13;20.40;99.90
13113;DHT22;6622;49.752;6.100;2022-08-01T07:12:40;20.40;99.90
13113;DHT22;6622;49.752;6.100;2022-08-01T07:15:07;20.40;99.90
13113;DHT22;6622;49.752;6.100;2022-08-01T07:17:42;20.50;99.90
13113;DHT22;6622;49.752;6.100;2022-08-01T07:20:00;20.50;99.90
13113;DHT22;6622;49.752;6.100;2022-08-01T07:22:26;20.60;99.90
13113;DHT22;6622;49.752;6.100;2022-08-01T07:24:53;20.60;99.90
13113;DHT22;6622;49.752;6.100;2022-08-01T07:27:20;20.60;99.90
13113;DHT22;6622;49.752;6.100;2022-08-01T07:29:46;20.70;99.90
13113;DHT22;6622;49.752;6.100;2022-08-01T07:32:13;20.70;99.90
13113;DHT22;6622;49.752;6.100;2022-08-01T07:34:39;20.70;99.90
13113;DHT22;6622;49.752;6.100;2022-08-01T07:37:06;20.80;99.90
13113;DHT22;6622;49.752;6.100;2022-08-01T07:39:33;20.80;99.90
13113;DHT22;6622;49.752;6.100;2022-08-01T07:41:59;20.90;99.90
13113;DHT22;6622;49.752;6.100;2022-08-01T07:44:26;20.90;99.90
13113;DHT22;6622;49.752;6.100;2022-08-01T07:46:53;20.90;99.90
13113;DHT22;6622;49.752;6.100;2022-08-01T07:49:19;20.90;99.90
13113;DHT22;6622;49.752;6.100;2022-08-01T07:51:46;20.90;99.90
13113;DHT22;6622;49.752;6.100;2022-08-01T07:54:12;20.90;99.90
13113;DHT22;6622;49.752;6.100;2022-08-01T07:56:39;21.00;99.90
13113;DHT22;6622;49.752;6.100;2022-08-01T07:59:06;21.00;99.90
13113;DHT22;6622;49.752;6.100;2022-08-01T08:01:32;21.10;99.90
13113;DHT22;6622;49.752;6.100;2022-08-01T08:03:59;21.20;99.90
13113;DHT22;6622;49.752;6.100;2022-08-01T08:06:26;21.20;99.90
13113;DHT22;6622;49.752;6.100;2022-08-01T08:08:52;21.20;99.90
13113;DHT22;6622;49.752;6.100;2022-08-01T08:11:19;21.20;99.90
13113;DHT22;6622;49.752;6.100;2022-08-01T08:13:45;21.20;99.90
13113;DHT22;6622;49.752;6.100;2022-08-01T08:16:12;21.10;99.90
13113;DHT22;6622;49.752;6.100;2022-08-01T08:18:39;21.10;99.90
13113;DHT22;6622;49.752;6.100;2022-08-01T08:21:05;21.00;99.90
13113;DHT22;6622;49.752;6.100;2022-08-01T08:23:32;21.00;99.90
13113;DHT22;6622;49.752;6.100;2022-08-01T08:26:17;21.10;99.90
13113;DHT22;6622;49.752;6.100;2022-08-01T08:28:43;21.00;99.90
13113;DHT22;6622;49.752;6.100;2022-08-01T08:31:10;21.10;99.90
13113;DHT22;6622;49.752;6.100;2022-08-01T08:33:36;21.10;99.90
13113;DHT22;6622;49.752;6.100;2022-08-01T08:36:03;21.20;99.90
13113;DHT22;6622;49.752;6.100;2022-08-01T08:38:30;21.30;99.90
13113;DHT22;6622;49.752;6.100;2022-08-01T08:40:57;21.40;99.90
13113;DHT22;6622;49.752;6.100;2022-08-01T08:43:24;21.30;99.90
13113;DHT22;6622;49.752;6.100;2022-08-01T08:45:50;21.30;99.90
13113;DHT22;6622;49.752;6.100;2022-08-01T08:48:16;21.30;99.90
13113;DHT22;6622;49.752;6.100;2022-08-01T08:50:43;21.30;99.90
13113;DHT22;6622;49.752;6.100;2022-08-01T08:53:10;21.30;99.90
13113;DHT22;6622;49.752;6.100;2022-08-01T08:55:37;20.90;99.90
13113;DHT22;6622;49.752;6.100;2022-08-01T08:58:04;20.90;99.90
13113;DHT22;6622;49.752;6.100;2022-08-01T09:00:30;21.00;99.90
13113;DHT22;6622;49.752;6.100;2022-08-01T09:02:57;21.20;99.90
13113;DHT22;6622;49.752;6.100;2022-08-01T09:05:24;21.20;99.90
13113;DHT22;6622;49.752;6.100;2022-08-01T09:07:54;21.20;99.90
13113;DHT22;6622;49.752;6.100;2022-08-01T09:10:20;21.40;99.90
13113;DHT22;6622;49.752;6.100;2022-08-01T09:13:12;21.60;99.90
13113;DHT22;6622;49.752;6.100;2022-08-01T09:15:52;21.70;99.90
13113;DHT22;6622;49.752;6.100;2022-08-01T09:18:38;21.90;99.90
13113;DHT22;6622;49.752;6.100;2022-08-01T09:23:39;22.00;99.90
13113;DHT22;6622;49.752;6.100;2022-08-01T09:26:11;22.00;99.90
13113;DHT22;6622;49.752;6.100;2022-08-01T09:28:37;22.00;99.90
13113;DHT22;6622;49.752;6.100;2022-08-01T09:31:08;22.10;99.90
13113;DHT22;6622;49.752;6.100;2022-08-01T09:33:54;22.20;99.90
13113;DHT22;6622;49.752;6.100;2022-08-01T09:36:16;22.20;99.90
13113;DHT22;6622;49.752;6.100;2022-08-01T09:38:43;22.20;99.90
13113;DHT22;6622;49.752;6.100;2022-08-01T09:41:09;22.40;99.90
13113;DHT22;6622;49.752;6.100;2022-08-01T09:43:36;22.50;99.90
13113;DHT22;6622;49.752;6.100;2022-08-01T09:46:09;22.50;99.90
13113;DHT22;6622;49.752;6.100;2022-08-01T09:48:35;22.50;99.90
13113;DHT22;6622;49.752;6.100;2022-08-01T09:51:02;22.50;99.90
13113;DHT22;6622;49.752;6.100;2022-08-01T09:53:39;22.20;99.90
13113;DHT22;6622;49.752;6.100;2022-08-01T09:56:07;22.20;99.90
13113;DHT22;6622;49.752;6.100;2022-08-01T09:58:22;22.70;99.90
13113;DHT22;6622;49.752;6.100;2022-08-01T10:00:59;23.10;99.90
13113;DHT22;6622;49.752;6.100;2022-08-01T10:03:28;23.10;99.90
13113;DHT22;6622;49.752;6.100;2022-08-01T10:05:55;23.30;99.90
13113;DHT22;6622;49.752;6.100;2022-08-01T10:08:21;22.90;99.90
13113;DHT22;6622;49.752;6.100;2022-08-01T10:11:08;22.90;99.90
13113;DHT22;6622;49.752;6.100;2022-08-01T10:13:33;22.90;99.90
13113;DHT22;6622;49.752;6.100;2022-08-01T10:16:00;23.00;99.90
13113;DHT22;6622;49.752;6.100;2022-08-01T10:18:31;23.10;99.90
13113;DHT22;6622;49.752;6.100;2022-08-01T10:20:57;23.10;99.90
13113;DHT22;6622;49.752;6.100;2022-08-01T10:23:27;22.80;99.90
13113;DHT22;6622;49.752;6.100;2022-08-01T10:25:50;22.50;99.90
13113;DHT22;6622;49.752;6.100;2022-08-01T10:28:18;22.50;99.90
13113;DHT22;6622;49.752;6.100;2022-08-01T10:30:44;22.50;99.90
13113;DHT22;6622;49.752;6.100;2022-08-01T10:33:11;22.40;99.90
13113;DHT22;6622;49.752;6.100;2022-08-01T10:35:41;22.80;99.90
13113;DHT22;6622;49.752;6.100;2022-08-01T10:38:07;22.80;99.90
13113;DHT22;6622;49.752;6.100;2022-08-01T10:40:34;23.30;99.90
13113;DHT22;6622;49.752;6.100;2022-08-01T10:43:01;23.80;99.90
13113;DHT22;6622;49.752;6.100;2022-08-01T10:45:28;23.80;99.90
13113;DHT22;6622;49.752;6.100;2022-08-01T10:48:18;23.90;99.90
13113;DHT22;6622;49.752;6.100;2022-08-01T10:50:44;23.90;99.90
13113;DHT22;6622;49.752;6.100;2022-08-01T10:53:19;23.90;99.90
13113;DHT22;6622;49.752;6.100;2022-08-01T11:01:17;23.30;99.90
13113;DHT22;6622;49.752;6.100;2022-08-01T11:03:55;23.30;99.90
13113;DHT22;6622;49.752;6.100;2022-08-01T11:06:18;23.40;99.90
13113;DHT22;6622;49.752;6.100;2022-08-01T11:08:42;23.50;99.90
13113;DHT22;6622;49.752;6.100;2022-08-01T11:11:08;23.60;99.90
13113;DHT22;6622;49.752;6.100;2022-08-01T11:16:27;23.60;99.90
13113;DHT22;6622;49.752;6.100;2022-08-01T11:18:54;23.30;99.90
13113;DHT22;6622;49.752;6.100;2022-08-01T11:21:20;23.30;99.90
13113;DHT22;6622;49.752;6.100;2022-08-01T11:23:47;23.40;99.90
13113;DHT22;6622;49.752;6.100;2022-08-01T11:26:14;23.30;99.90
13113;DHT22;6622;49.752;6.100;2022-08-01T11:28:41;23.50;99.90
13113;DHT22;6622;49.752;6.100;2022-08-01T11:41:15;24.40;99.90
13113;DHT22;6622;49.752;6.100;2022-08-01T11:47:06;24.20;99.90
13113;DHT22;6622;49.752;6.100;2022-08-01T11:54:47;24.70;99.90
13113;DHT22;6622;49.752;6.100;2022-08-01T11:57:18;24.90;99.90
13113;DHT22;6622;49.752;6.100;2022-08-01T11:59:42;25.20;99.90
13113;DHT22;6622;49.752;6.100;2022-08-01T12:02:18;25.50;99.90
13113;DHT22;6622;49.752;6.100;2022-08-01T12:05:06;25.80;99.90
13113;DHT22;6622;49.752;6.100;2022-08-01T12:07:14;25.90;99.90
13113;DHT22;6622;49.752;6.100;2022-08-01T12:09:40;25.80;99.90
13113;DHT22;6622;49.752;6.100;2022-08-01T12:12:07;25.70;99.90
13113;DHT22;6622;49.752;6.100;2022-08-01T12:14:33;25.50;99.90
13113;DHT22;6622;49.752;6.100;2022-08-01T12:17:00;25.50;99.90
13113;DHT22;6622;49.752;6.100;2022-08-01T12:19:27;25.50;99.90
13113;DHT22;6622;49.752;6.100;2022-08-01T12:22:07;25.60;99.90
13113;DHT22;6622;49.752;6.100;2022-08-01T12:24:36;25.60;99.90
13113;DHT22;6622;49.752;6.100;2022-08-01T12:27:03;25.20;99.90
13113;DHT22;6622;49.752;6.100;2022-08-01T12:29:42;25.30;99.90
13113;DHT22;6622;49.752;6.100;2022-08-01T12:32:11;25.30;99.90
13113;DHT22;6622;49.752;6.100;2022-08-01T12:34:31;25.50;99.90
13113;DHT22;6622;49.752;6.100;2022-08-01T12:37:00;25.40;99.90
13113;DHT22;6622;49.752;6.100;2022-08-01T12:39:34;25.30;99.90
13113;DHT22;6622;49.752;6.100;2022-08-01T12:42:00;25.60;99.90
13113;DHT22;6622;49.752;6.100;2022-08-01T12:44:27;25.80;99.90
13113;DHT22;6622;49.752;6.100;2022-08-01T12:46:53;25.90;99.90
13113;DHT22;6622;49.752;6.100;2022-08-01T12:49:20;25.80;99.90
13113;DHT22;6622;49.752;6.100;2022-08-01T12:51:48;25.80;99.90
13113;DHT22;6622;49.752;6.100;2022-08-01T12:54:14;25.70;99.90
13113;DHT22;6622;49.752;6.100;2022-08-01T12:56:41;25.70;99.90
13113;DHT22;6622;49.752;6.100;2022-08-01T12:59:23;25.50;99.90
13113;DHT22;6622;49.752;6.100;2022-08-01T13:01:49;25.40;99.90
13113;DHT22;6622;49.752;6.100;2022-08-01T13:04:16;25.30;99.90
13113;DHT22;6622;49.752;6.100;2022-08-01T13:06:42;25.20;99.90
13113;DHT22;6622;49.752;6.100;2022-08-01T13:09:10;25.40;99.90
13113;DHT22;6622;49.752;6.100;2022-08-01T13:11:42;25.40;99.90
13113;DHT22;6622;49.752;6.100;2022-08-01T13:14:09;25.60;99.90
13113;DHT22;6622;49.752;6.100;2022-08-01T13:16:47;26.10;99.90
13113;DHT22;6622;49.752;6.100;2022-08-01T13:19:14;26.20;99.90
13113;DHT22;6622;49.752;6.100;2022-08-01T13:21:52;26.20;99.90
13113;DHT22;6622;49.752;6.100;2022-08-01T13:24:08;26.20;99.90
13113;DHT22;6622;49.752;6.100;2022-08-01T13:26:49;26.00;99.90
13113;DHT22;6622;49.752;6.100;2022-08-01T13:29:21;25.80;99.90
13113;DHT22;6622;49.752;6.100;2022-08-01T13:31:44;25.70;99.90
13113;DHT22;6622;49.752;6.100;2022-08-01T13:34:11;25.70;99.90
13113;DHT22;6622;49.752;6.100;2022-08-01T13:36:37;25.70;99.90
13113;DHT22;6622;49.752;6.100;2022-08-01T13:39:04;25.80;99.90
13113;DHT22;6622;49.752;6.100;2022-08-01T13:41:49;25.70;99.90
13113;DHT22;6622;49.752;6.100;2022-08-01T13:44:15;25.80;99.90
13113;DHT22;6622;49.752;6.100;2022-08-01T13:46:42;26.00;99.90
13113;DHT22;6622;49.752;6.100;2022-08-01T13:49:09;26.50;99.90
13113;DHT22;6622;49.752;6.100;2022-08-01T13:51:35;26.80;99.90
13113;DHT22;6622;49.752;6.100;2022-08-01T13:54:02;26.90;99.90
13113;DHT22;6622;49.752;6.100;2022-08-01T13:56:28;26.70;99.90
13113;DHT22;6622;49.752;6.100;2022-08-01T13:58:55;26.60;99.90
13113;DHT22;6622;49.752;6.100;2022-08-01T14:01:22;26.20;99.90
13113;DHT22;6622;49.752;6.100;2022-08-01T14:03:48;25.70;99.90
13113;DHT22;6622;49.752;6.100;2022-08-01T14:06:15;25.60;99.90
13113;DHT22;6622;49.752;6.100;2022-08-01T14:08:44;25.70;99.90
13113;DHT22;6622;49.752;6.100;2022-08-01T14:11:11;25.70;99.90
13113;DHT22;6622;49.752;6.100;2022-08-01T14:13:38;25.70;99.90
13113;DHT22;6622;49.752;6.100;2022-08-01T14:16:05;25.70;99.90
13113;DHT22;6622;49.752;6.100;2022-08-01T14:18:32;25.70;99.90
13113;DHT22;6622;49.752;6.100;2022-08-01T14:20:58;25.70;99.90
13113;DHT22;6622;49.752;6.100;2022-08-01T14:23:25;25.80;99.90
13113;DHT22;6622;49.752;6.100;2022-08-01T14:25:52;25.60;99.90
13113;DHT22;6622;49.752;6.100;2022-08-01T14:28:19;25.60;99.90
13113;DHT22;6622;49.752;6.100;2022-08-01T14:30:46;25.60;99.90
13113;DHT22;6622;49.752;6.100;2022-08-01T14:33:12;25.80;99.90
13113;DHT22;6622;49.752;6.100;2022-08-01T14:35:39;25.80;99.90
13113;DHT22;6622;49.752;6.100;2022-08-01T14:38:05;25.90;99.90
13113;DHT22;6622;49.752;6.100;2022-08-01T14:40:32;26.00;99.90
13113;DHT22;6622;49.752;6.100;2022-08-01T14:42:59;26.20;99.90
13113;DHT22;6622;49.752;6.100;2022-08-01T14:45:25;26.00;99.90
13113;DHT22;6622;49.752;6.100;2022-08-01T14:47:52;25.80;99.90
13113;DHT22;6622;49.752;6.100;2022-08-01T14:50:19;25.80;99.90
13113;DHT22;6622;49.752;6.100;2022-08-01T14:52:45;25.80;99.90
13113;DHT22;6622;49.752;6.100;2022-08-01T14:55:12;25.90;99.90
13113;DHT22;6622;49.752;6.100;2022-08-01T14:57:39;25.90;99.90
13113;DHT22;6622;49.752;6.100;2022-08-01T15:00:07;25.80;99.90
13113;DHT22;6622;49.752;6.100;2022-08-01T15:02:33;25.70;99.90
13113;DHT22;6622;49.752;6.100;2022-08-01T15:04:59;25.60;99.90
13113;DHT22;6622;49.752;6.100;2022-08-01T15:07:26;25.70;99.90
13113;DHT22;6622;49.752;6.100;2022-08-01T15:09:53;25.60;99.90
13113;DHT22;6622;49.752;6.100;2022-08-01T15:12:20;25.50;99.90
13113;DHT22;6622;49.752;6.100;2022-08-01T15:14:47;25.50;99.90
13113;DHT22;6622;49.752;6.100;2022-08-01T15:17:26;25.40;99.90
13113;DHT22;6622;49.752;6.100;2022-08-01T15:19:52;25.40;99.90
13113;DHT22;6622;49.752;6.100;2022-08-01T15:22:22;25.20;99.90
13113;DHT22;6622;49.752;6.100;2022-08-01T15:24:48;25.10;99.90
13113;DHT22;6622;49.752;6.100;2022-08-01T15:27:15;25.10;99.90
13113;DHT22;6622;49.752;6.100;2022-08-01T15:29:42;25.10;99.90
13113;DHT22;6622;49.752;6.100;2022-08-01T15:32:08;25.10;99.90
13113;DHT22;6622;49.752;6.100;2022-08-01T15:34:35;25.10;99.90
13113;DHT22;6622;49.752;6.100;2022-08-01T15:37:03;25.10;99.90
13113;DHT22;6622;49.752;6.100;2022-08-01T15:39:29;25.10;99.90
13113;DHT22;6622;49.752;6.100;2022-08-01T15:41:59;25.20;99.90
13113;DHT22;6622;49.752;6.100;2022-08-01T15:44:25;25.30;99.90
13113;DHT22;6622;49.752;6.100;2022-08-01T15:46:52;25.30;99.90
13113;DHT22;6622;49.752;6.100;2022-08-01T15:49:19;25.10;99.90
13113;DHT22;6622;49.752;6.100;2022-08-01T15:51:46;25.10;99.90
13113;DHT22;6622;49.752;6.100;2022-08-01T15:54:12;25.00;99.90
13113;DHT22;6622;49.752;6.100;2022-08-01T15:56:39;25.00;99.90
13113;DHT22;6622;49.752;6.100;2022-08-01T15:59:06;25.00;99.90
13113;DHT22;6622;49.752;6.100;2022-08-01T16:01:33;25.00;99.90
13113;DHT22;6622;49.752;6.100;2022-08-01T16:04:00;25.00;99.90
13113;DHT22;6622;49.752;6.100;2022-08-01T16:06:26;25.00;99.90
13113;DHT22;6622;49.752;6.100;2022-08-01T16:08:54;25.10;99.90
13113;DHT22;6622;49.752;6.100;2022-08-01T16:11:20;25.00;99.90
13113;DHT22;6622;49.752;6.100;2022-08-01T16:13:47;25.00;99.90
13113;DHT22;6622;49.752;6.100;2022-08-01T16:16:13;25.00;99.90
13113;DHT22;6622;49.752;6.100;2022-08-01T16:18:41;24.80;99.90